sim
Sign-in with your pilot id or email,
or register
Callsign
Passwort

Schedule Details

Flight Number: DLH1682
Departure: Munich Airport (EDDM) at 21:15
Arrival: Budapest Ferenc Liszt International Airport (LHBP) at 22:30
Route: Lufthansa Passenger Schedule. Enter filed route here before submitting Pirep.

Weather Information
Getting current METAR information for EDDM 231520Z 25007KT 220V280 9999 FEW045 20/14 Q1009 NOSIG
Getting current METAR information for LHBP 231530Z 17008KT 9999 VCSH FEW055CB SCT090 24/13 Q1008 TEMPO 24015G25KT 7000 -TSRA

Schedule Frequency

Route Map